createdAt,value
2022-09-12T00:01:12.265Z,14.68
2022-09-12T00:03:40.498Z,9.57
2022-09-12T00:06:10.490Z,13.38
2022-09-12T00:08:38.386Z,11.95
2022-09-12T00:11:08.634Z,10.60
2022-09-12T00:13:41.436Z,10.27
2022-09-12T00:16:17.002Z,10.73
2022-09-12T00:18:46.526Z,11.90
2022-09-12T00:21:15.001Z,14.23
2022-09-12T00:23:42.843Z,11.02
2022-09-12T00:26:10.678Z,11.95
2022-09-12T00:28:39.873Z,11.18
2022-09-12T00:31:11.828Z,10.63
2022-09-12T00:33:39.975Z,10.23
2022-09-12T00:36:10.494Z,13.63
2022-09-12T00:38:38.872Z,11.85
2022-09-12T00:41:06.808Z,10.77
2022-09-12T00:43:44.206Z,10.63
2022-09-12T00:46:34.973Z,11.77
2022-09-12T00:49:07.886Z,13.15
2022-09-12T00:51:38.179Z,10.05
2022-09-12T00:54:11.786Z,13.10
2022-09-12T00:56:42.393Z,12.18
2022-09-12T00:59:16.462Z,9.07
2022-09-12T01:01:46.554Z,12.93
2022-09-12T01:04:14.574Z,10.20
2022-09-12T01:06:44.136Z,9.18
2022-09-12T01:09:16.865Z,10.13
2022-09-12T01:11:47.198Z,11.35
2022-09-12T01:14:16.322Z,8.75
2022-09-12T01:16:45.440Z,9.73
2022-09-12T01:19:38.366Z,8.63
2022-09-12T01:22:36.303Z,9.90
2022-09-12T01:25:34.573Z,10.88
2022-09-12T01:28:24.916Z,13.05
2022-09-12T01:31:05.764Z,17.92
2022-09-12T01:34:08.707Z,19.98
2022-09-12T01:36:46.253Z,25.23
2022-09-12T01:39:26.302Z,20.23
2022-09-12T01:42:21.140Z,18.05
2022-09-12T01:45:07.205Z,19.98
2022-09-12T01:47:41.929Z,20.27
2022-09-12T01:50:28.599Z,13.98
2022-09-12T01:53:07.276Z,10.85
2022-09-12T01:55:52.431Z,13.27
2022-09-12T01:58:26.784Z,14.63
2022-09-12T02:01:11.625Z,17.13
2022-09-12T02:03:48.266Z,16.58
2022-09-12T02:06:22.608Z,16.88
2022-09-12T02:08:55.090Z,17.63
2022-09-12T02:11:22.901Z,19.88
2022-09-12T02:13:57.837Z,17.35
2022-09-12T02:16:40.584Z,16.65
2022-09-12T02:19:13.713Z,16.00
2022-09-12T02:24:15.032Z,14.70
2022-09-12T02:26:50.303Z,14.80
2022-09-12T02:29:17.929Z,12.63
2022-09-12T02:31:47.891Z,15.27
2022-09-12T02:34:49.706Z,16.75
2022-09-12T02:37:46.680Z,12.07
2022-09-12T02:40:15.108Z,13.00
2022-09-12T02:42:43.387Z,13.15
2022-09-12T02:45:12.624Z,12.90
2022-09-12T02:47:49.403Z,14.73
2022-09-12T02:50:17.770Z,16.20
2022-09-12T02:52:46.725Z,13.98
2022-09-12T02:55:15.019Z,13.15
2022-09-12T02:57:42.734Z,13.02
2022-09-12T03:00:11.016Z,14.60
2022-09-12T03:03:13.749Z,16.58
2022-09-12T03:05:58.189Z,14.98
2022-09-12T03:08:51.365Z,17.40
2022-09-12T03:11:41.509Z,14.55
2022-09-12T03:14:32.405Z,14.50
2022-09-12T03:17:28.438Z,17.92
2022-09-12T03:20:05.898Z,14.82
2022-09-12T03:22:54.849Z,16.08
2022-09-12T03:25:30.194Z,15.15
2022-09-12T03:28:13.366Z,16.58
2022-09-12T03:30:45.172Z,17.23
2022-09-12T03:33:15.900Z,16.65
2022-09-12T03:35:44.324Z,14.10
2022-09-12T03:38:11.880Z,16.52
2022-09-12T03:40:39.928Z,18.00
2022-09-12T03:43:09.953Z,21.00
2022-09-12T03:45:38.260Z,19.25
2022-09-12T03:48:07.145Z,17.90
2022-09-12T03:50:35.005Z,20.00
2022-09-12T03:53:03.709Z,18.15
2022-09-12T03:55:31.419Z,15.70
2022-09-12T03:57:58.844Z,20.00
2022-09-12T04:00:26.318Z,16.33
2022-09-12T04:02:57.611Z,20.05
2022-09-12T04:05:26.019Z,16.73
2022-09-12T04:07:53.586Z,18.30
2022-09-12T04:10:21.017Z,17.27
2022-09-12T04:12:48.392Z,17.55
2022-09-12T04:15:15.887Z,19.88
2022-09-12T04:17:43.532Z,17.73
2022-09-12T04:20:10.986Z,15.25
2022-09-12T04:22:38.454Z,14.70
2022-09-12T04:25:07.585Z,15.18
2022-09-12T04:27:36.681Z,12.90
2022-09-12T04:30:05.402Z,14.77
2022-09-12T04:32:34.038Z,18.10
2022-09-12T04:35:02.299Z,14.98
2022-09-12T04:37:30.933Z,17.75
2022-09-12T04:39:59.307Z,18.75
2022-09-12T04:42:26.717Z,15.40
2022-09-12T04:44:54.817Z,16.92
2022-09-12T04:47:23.313Z,18.08
2022-09-12T04:49:51.589Z,20.65
2022-09-12T04:52:18.975Z,14.98
2022-09-12T04:54:46.439Z,15.55
2022-09-12T04:57:14.144Z,14.88
2022-09-12T04:59:41.920Z,14.90
2022-09-12T05:02:09.718Z,13.63
2022-09-12T05:04:38.879Z,13.82
2022-09-12T05:07:06.405Z,13.32
2022-09-12T05:09:33.872Z,11.57
2022-09-12T05:12:05.515Z,11.57
2022-09-12T05:14:34.041Z,12.60
2022-09-12T05:17:02.291Z,11.68
2022-09-12T05:19:30.785Z,11.75
2022-09-12T05:21:59.349Z,14.82
2022-09-12T05:24:27.058Z,10.25
2022-09-12T05:26:54.837Z,12.45
2022-09-12T05:29:22.278Z,8.65
2022-09-12T05:31:52.270Z,10.40
2022-09-12T05:34:20.725Z,9.65
2022-09-12T05:36:49.198Z,11.18
2022-09-12T05:39:16.762Z,8.65
2022-09-12T05:41:44.153Z,11.10
2022-09-12T05:44:14.286Z,10.60
2022-09-12T05:46:45.258Z,11.65
2022-09-12T05:49:14.654Z,8.88
2022-09-12T05:51:45.441Z,8.43
2022-09-12T05:54:15.172Z,9.57
2022-09-12T05:56:44.520Z,10.63
2022-09-12T05:59:21.046Z,8.88
2022-09-12T06:01:49.332Z,9.10
2022-09-12T06:04:17.177Z,8.55
2022-09-12T06:06:46.252Z,9.05
2022-09-12T06:09:15.931Z,9.48
2022-09-12T06:11:44.569Z,9.00
2022-09-12T06:14:13.862Z,8.65
2022-09-12T06:16:42.496Z,9.63
2022-09-12T06:19:17.920Z,9.10
2022-09-12T06:21:46.622Z,11.60
2022-09-12T06:24:14.376Z,11.45
2022-09-12T06:26:41.965Z,12.15
2022-09-12T06:29:11.953Z,8.88
2022-09-12T06:31:42.729Z,8.05
2022-09-12T06:34:14.192Z,8.73
2022-09-12T06:36:45.840Z,12.27
2022-09-12T06:39:16.313Z,9.02
2022-09-12T06:41:45.054Z,7.13
2022-09-12T06:44:17.080Z,7.55
2022-09-12T06:46:45.222Z,8.65
2022-09-12T06:49:14.040Z,8.38
2022-09-12T06:51:43.106Z,7.43
2022-09-12T06:54:14.404Z,9.10
2022-09-12T06:56:42.010Z,6.68
2022-09-12T06:59:09.821Z,6.65
2022-09-12T07:01:37.839Z,8.20
2022-09-12T07:04:06.397Z,7.88
2022-09-12T07:06:44.305Z,8.25
2022-09-12T07:09:14.273Z,9.75
2022-09-12T07:11:42.659Z,6.97
2022-09-12T07:14:14.160Z,9.38
2022-09-12T07:16:42.134Z,6.40
2022-09-12T07:19:10.137Z,7.15
2022-09-12T07:21:40.645Z,7.32
2022-09-12T07:24:10.436Z,9.00
2022-09-12T07:26:40.196Z,7.47
2022-09-12T07:29:35.284Z,8.93
2022-09-12T07:31:58.649Z,16.05
2022-09-12T07:34:26.309Z,9.93
2022-09-12T07:36:54.089Z,16.98
2022-09-12T07:39:21.547Z,12.32
2022-09-12T07:41:48.931Z,12.65
2022-09-12T07:44:16.406Z,27.58
2022-09-12T07:46:43.770Z,21.50
2022-09-12T07:49:13.357Z,13.10
2022-09-12T07:51:41.370Z,22.65
2022-09-12T07:54:10.029Z,21.85
2022-09-12T07:56:39.453Z,17.92
2022-09-12T07:59:08.509Z,13.77
2022-09-12T08:01:36.519Z,6.68
2022-09-12T08:04:05.513Z,7.40
2022-09-12T08:06:36.284Z,16.25
2022-09-12T08:09:05.462Z,11.05
2022-09-12T08:11:33.136Z,9.10
2022-09-12T08:14:03.051Z,9.07
2022-09-12T08:16:32.425Z,17.25
2022-09-12T08:19:02.773Z,17.70
2022-09-12T08:21:31.867Z,22.27
2022-09-12T08:24:04.125Z,8.55
2022-09-12T08:26:33.225Z,10.83
2022-09-12T08:29:01.177Z,18.88
2022-09-12T08:31:29.389Z,18.33
2022-09-12T08:33:57.886Z,19.42
2022-09-12T08:36:27.870Z,23.27
2022-09-12T08:38:59.924Z,17.35
2022-09-12T08:41:32.221Z,11.82
2022-09-12T08:44:24.369Z,17.77
2022-09-12T08:47:14.520Z,23.50
2022-09-12T08:50:03.741Z,29.35
2022-09-12T08:52:43.619Z,31.77
2022-09-12T08:55:31.238Z,25.13
2022-09-12T08:58:00.939Z,23.30
2022-09-12T09:00:38.928Z,17.63
2022-09-12T09:03:25.872Z,18.38
2022-09-12T09:06:13.113Z,21.77
2022-09-12T09:08:50.935Z,19.67
2022-09-12T09:11:28.615Z,18.00
2022-09-12T09:14:27.972Z,14.32
2022-09-12T09:16:58.100Z,15.55
2022-09-12T09:19:31.094Z,13.82
2022-09-12T09:22:05.144Z,15.20
2022-09-12T09:24:40.397Z,14.27
2022-09-12T09:27:39.375Z,14.02
2022-09-12T09:30:15.645Z,15.43
2022-09-12T09:32:47.973Z,15.73
2022-09-12T09:35:19.194Z,17.38
2022-09-12T09:38:05.064Z,15.25
2022-09-12T09:40:43.423Z,15.85
2022-09-12T09:43:23.012Z,18.80
2022-09-12T09:45:52.266Z,18.20
2022-09-12T09:48:24.128Z,21.17
2022-09-12T09:50:52.159Z,19.13
2022-09-12T09:53:46.469Z,19.40
2022-09-12T09:56:37.661Z,20.00
2022-09-12T09:59:26.485Z,22.63
2022-09-12T10:02:23.642Z,24.25
2022-09-12T10:04:58.504Z,24.08
2022-09-12T10:07:27.168Z,40.78
2022-09-12T10:10:18.146Z,46.42
2022-09-12T10:12:45.950Z,61.65
2022-09-12T10:15:20.481Z,38.47
2022-09-12T10:17:50.617Z,51.47
2022-09-12T10:20:41.828Z,34.45
2022-09-12T10:23:32.462Z,41.90
2022-09-12T10:26:04.419Z,30.77
2022-09-12T10:28:41.423Z,32.05
2022-09-12T10:31:14.055Z,38.70
2022-09-12T10:33:53.150Z,30.58
2022-09-12T10:36:22.162Z,27.83
2022-09-12T10:38:55.986Z,32.60
2022-09-12T10:41:24.297Z,31.33
2022-09-12T10:43:51.970Z,31.35
2022-09-12T10:46:28.284Z,29.23
2022-09-12T10:49:14.005Z,27.88
2022-09-12T10:51:41.663Z,35.55
2022-09-12T10:54:12.928Z,41.05
2022-09-12T10:56:57.932Z,35.75
2022-09-12T10:59:43.772Z,28.23
2022-09-12T11:02:42.561Z,36.60
2022-09-12T11:05:36.856Z,28.10
2022-09-12T11:08:18.475Z,34.97
2022-09-12T11:11:09.766Z,37.08
2022-09-12T11:14:01.502Z,34.60
2022-09-12T11:16:44.842Z,33.95
2022-09-12T11:22:19.318Z,43.58
2022-09-12T11:25:10.046Z,28.98
2022-09-12T11:28:07.753Z,37.53
2022-09-12T11:30:47.709Z,41.17
2022-09-12T11:33:34.480Z,42.40
2022-09-12T11:36:05.298Z,45.35
2022-09-12T11:38:52.478Z,45.15
2022-09-12T11:41:34.411Z,32.33
2022-09-12T11:44:32.459Z,47.50
2022-09-12T11:47:05.550Z,44.22
2022-09-12T11:52:14.886Z,50.05
2022-09-12T11:54:54.128Z,52.33
2022-09-12T11:57:41.692Z,58.53
2022-09-12T12:00:29.057Z,52.70
2022-09-12T12:03:20.883Z,40.53
2022-09-12T12:05:55.936Z,53.25
2022-09-12T12:08:25.469Z,57.20
2022-09-12T12:10:57.766Z,31.95
2022-09-12T12:13:33.519Z,40.43
2022-09-12T12:16:05.858Z,48.13
2022-09-12T12:18:36.924Z,42.65
2022-09-12T12:21:29.587Z,36.63
2022-09-12T12:24:20.149Z,30.27
2022-09-12T12:26:59.375Z,52.22
2022-09-12T12:29:44.321Z,42.63
2022-09-12T12:32:27.443Z,42.47
2022-09-12T12:35:04.249Z,48.35
2022-09-12T12:37:53.531Z,32.20
2022-09-12T12:40:25.388Z,27.58
2022-09-12T12:43:03.284Z,37.95
2022-09-12T12:45:48.396Z,30.02
2022-09-12T12:48:18.393Z,30.23
2022-09-12T12:50:46.597Z,33.47
2022-09-12T12:53:21.626Z,35.40
2022-09-12T12:55:52.652Z,25.52
2022-09-12T12:58:38.417Z,26.48
2022-09-12T13:01:23.011Z,37.90
2022-09-12T13:04:01.335Z,43.55
2022-09-12T13:06:37.270Z,21.38
2022-09-12T13:09:09.616Z,31.30
2022-09-12T13:11:40.524Z,21.08
2022-09-12T13:14:43.145Z,23.25
2022-09-12T13:17:29.368Z,22.75
2022-09-12T13:20:28.795Z,18.02
2022-09-12T13:22:57.720Z,32.67
2022-09-12T13:25:34.079Z,25.73
2022-09-12T13:28:16.800Z,36.25
2022-09-12T13:30:49.044Z,24.10
2022-09-12T13:33:40.687Z,24.23
2022-09-12T13:36:38.916Z,17.80
2022-09-12T13:39:36.990Z,17.30
2022-09-12T13:42:35.452Z,16.02
2022-09-12T13:45:20.833Z,26.38
2022-09-12T13:47:57.873Z,21.25
2022-09-12T13:50:29.255Z,19.45
2022-09-12T13:53:01.554Z,18.73
2022-09-12T13:55:33.288Z,14.20
2022-09-12T13:58:03.591Z,13.07
2022-09-12T14:00:33.325Z,11.55
2022-09-12T14:03:16.955Z,13.50
2022-09-12T14:05:48.793Z,11.85
2022-09-12T14:08:16.684Z,11.07
2022-09-12T14:10:47.999Z,9.43
2022-09-12T14:13:21.390Z,12.68
2022-09-12T14:15:52.708Z,10.93
2022-09-12T14:18:26.987Z,12.55
2022-09-12T14:20:57.817Z,9.07
2022-09-12T14:23:29.834Z,8.18
2022-09-12T14:26:00.602Z,9.52
2022-09-12T14:28:30.407Z,7.97
2022-09-12T14:31:01.855Z,6.40
2022-09-12T14:33:32.760Z,7.13
2022-09-12T14:36:20.011Z,6.88
2022-09-12T14:38:51.547Z,8.38
2022-09-12T14:41:27.750Z,6.53
2022-09-12T14:43:59.325Z,9.20
2022-09-12T14:46:34.923Z,6.53
2022-09-12T14:49:25.622Z,8.07
2022-09-12T14:51:57.445Z,6.50
2022-09-12T14:54:38.132Z,6.68
2022-09-12T14:57:19.566Z,8.85
2022-09-12T14:59:47.178Z,8.57
2022-09-12T15:02:30.290Z,7.47
2022-09-12T15:05:19.558Z,8.10
2022-09-12T15:07:58.204Z,8.45
2022-09-12T15:10:31.252Z,7.85
2022-09-12T15:15:49.717Z,8.05
2022-09-12T15:18:19.088Z,6.72
2022-09-12T15:20:49.654Z,5.93
2022-09-12T15:23:36.081Z,8.48
2022-09-12T15:26:04.455Z,11.93
2022-09-12T15:28:33.367Z,9.13
2022-09-12T15:31:07.265Z,6.15
2022-09-12T15:33:35.119Z,5.82
2022-09-12T15:36:03.004Z,7.90
2022-09-12T15:38:30.754Z,8.27
2022-09-12T15:40:58.214Z,8.40
2022-09-12T15:43:26.497Z,6.88
2022-09-12T15:45:54.175Z,5.85
2022-09-12T15:48:22.041Z,5.78
2022-09-12T15:50:49.805Z,8.88
2022-09-12T15:53:18.107Z,10.48
2022-09-12T15:55:46.088Z,7.28
2022-09-12T15:58:14.232Z,6.53
2022-09-12T16:00:42.238Z,7.55
2022-09-12T16:03:23.745Z,6.95
2022-09-12T16:05:57.412Z,6.55
2022-09-12T16:08:25.319Z,6.35
2022-09-12T16:10:56.860Z,7.22
2022-09-12T16:13:25.248Z,8.32
2022-09-12T16:15:56.744Z,9.30
2022-09-12T16:18:25.240Z,5.82
2022-09-12T16:20:54.056Z,6.22
2022-09-12T16:23:22.025Z,7.20
2022-09-12T16:26:01.114Z,6.05
2022-09-12T16:28:29.398Z,6.72
2022-09-12T16:30:58.746Z,5.93
2022-09-12T16:33:27.482Z,7.53
2022-09-12T16:36:03.703Z,6.45
2022-09-12T16:38:32.369Z,6.38
2022-09-12T16:41:01.773Z,5.85
2022-09-12T16:43:30.834Z,4.63
2022-09-12T16:46:17.838Z,4.70
2022-09-12T16:48:52.000Z,4.28
2022-09-12T16:51:23.934Z,7.10
2022-09-12T16:53:52.494Z,7.45
2022-09-12T16:56:20.177Z,7.68
2022-09-12T16:58:48.057Z,4.72
2022-09-12T17:01:19.535Z,8.07
2022-09-12T17:03:47.743Z,6.55
2022-09-12T17:06:18.634Z,6.25
2022-09-12T17:08:49.515Z,5.50
2022-09-12T17:11:32.213Z,7.43
2022-09-12T17:14:06.526Z,6.28
2022-09-12T17:16:37.480Z,5.25
2022-09-12T17:19:07.246Z,4.28
2022-09-12T17:21:36.060Z,6.50
2022-09-12T17:24:06.612Z,5.40
2022-09-12T17:26:35.206Z,4.65
2022-09-12T17:29:03.278Z,7.07
2022-09-12T17:31:32.247Z,5.88
2022-09-12T17:34:01.809Z,6.82
2022-09-12T17:36:32.149Z,5.50
2022-09-12T17:39:01.923Z,4.63
2022-09-12T17:41:32.606Z,8.95
2022-09-12T17:44:02.146Z,7.97
2022-09-12T17:46:35.518Z,6.45
2022-09-12T17:49:06.609Z,5.82
2022-09-12T17:51:35.481Z,5.50
2022-09-12T17:54:08.906Z,8.00
2022-09-12T17:56:37.601Z,7.50
2022-09-12T17:59:07.264Z,8.23
2022-09-12T18:01:51.452Z,5.80
2022-09-12T18:04:20.451Z,8.13
2022-09-12T18:06:50.814Z,5.30
2022-09-12T18:09:22.721Z,4.88
2022-09-12T18:11:53.072Z,4.93
2022-09-12T18:14:22.201Z,4.97
2022-09-12T18:16:52.325Z,5.20
2022-09-12T18:19:21.308Z,5.40
2022-09-12T18:21:50.490Z,6.97
2022-09-12T18:24:19.420Z,6.90
2022-09-12T18:26:47.665Z,7.10
2022-09-12T18:29:18.018Z,6.22
2022-09-12T18:31:47.548Z,4.70
2022-09-12T18:34:18.579Z,7.15
2022-09-12T18:36:50.663Z,5.90
2022-09-12T18:39:21.987Z,6.68
2022-09-12T18:41:54.635Z,5.85
2022-09-12T18:44:23.779Z,4.10
2022-09-12T18:46:52.823Z,6.30
2022-09-12T18:49:22.176Z,8.30
2022-09-12T18:51:50.991Z,6.32
2022-09-12T18:54:20.180Z,4.40
2022-09-12T18:56:48.917Z,8.35
2022-09-12T18:59:18.146Z,6.25
2022-09-12T19:01:47.727Z,6.25
2022-09-12T19:04:17.096Z,7.07
2022-09-12T19:06:48.359Z,6.50
2022-09-12T19:09:21.753Z,6.72
2022-09-12T19:11:51.008Z,5.50
2022-09-12T19:14:23.301Z,5.32
2022-09-12T19:16:52.946Z,5.20
2022-09-12T19:19:21.790Z,7.07
2022-09-12T19:21:50.015Z,5.07
2022-09-12T19:24:18.756Z,6.35
2022-09-12T19:26:47.997Z,7.25
2022-09-12T19:29:17.663Z,5.25
2022-09-12T19:31:46.892Z,7.03
2022-09-12T19:34:18.808Z,7.57
2022-09-12T19:36:49.308Z,4.22
2022-09-12T19:39:20.466Z,4.78
2022-09-12T19:41:49.938Z,4.80
2022-09-12T19:44:20.967Z,5.15
2022-09-12T19:46:52.788Z,4.95
2022-09-12T19:49:21.818Z,7.65
2022-09-12T19:51:50.930Z,7.93
2022-09-12T19:54:20.150Z,6.05
2022-09-12T19:56:48.595Z,6.28
2022-09-12T19:59:17.310Z,4.70
2022-09-12T20:01:45.602Z,5.35
2022-09-12T20:04:13.791Z,5.82
2022-09-12T20:06:41.914Z,6.18
2022-09-12T20:09:09.559Z,5.90
2022-09-12T20:11:37.825Z,5.18
2022-09-12T20:14:06.172Z,5.88
2022-09-12T20:16:34.554Z,9.02
2022-09-12T20:19:07.432Z,5.05
2022-09-12T20:21:37.130Z,6.53
2022-09-12T20:24:10.285Z,7.68
2022-09-12T20:29:09.898Z,6.70
2022-09-12T20:31:40.004Z,8.35
2022-09-12T20:34:09.390Z,5.90
2022-09-12T20:36:36.969Z,8.77
2022-09-12T20:39:05.273Z,5.93
2022-09-12T20:41:36.045Z,6.72
2022-09-12T20:44:04.213Z,5.47
2022-09-12T20:46:31.944Z,5.78
2022-09-12T20:49:00.019Z,7.65
2022-09-12T20:51:29.888Z,9.05
2022-09-12T20:53:59.438Z,8.43
2022-09-12T20:56:28.687Z,10.00
2022-09-12T20:58:56.688Z,6.70
2022-09-12T21:01:26.050Z,6.47
2022-09-12T21:03:54.132Z,7.78
2022-09-12T21:06:22.374Z,7.80
2022-09-12T21:08:51.063Z,7.72
2022-09-12T21:11:19.577Z,7.32
2022-09-12T21:13:47.233Z,6.00
2022-09-12T21:16:17.719Z,6.53
2022-09-12T21:18:46.206Z,5.55
2022-09-12T21:21:15.961Z,7.35
2022-09-12T21:23:43.756Z,7.53
2022-09-12T21:26:11.633Z,7.07
2022-09-12T21:28:39.054Z,5.80
2022-09-12T21:31:06.887Z,6.20
2022-09-12T21:33:34.381Z,8.43
2022-09-12T21:36:05.432Z,8.77
2022-09-12T21:38:33.503Z,7.43
2022-09-12T21:41:10.813Z,6.15
2022-09-12T21:43:39.145Z,6.38
2022-09-12T21:46:07.628Z,6.63
2022-09-12T21:48:35.180Z,6.07
2022-09-12T21:51:03.031Z,6.65
2022-09-12T21:53:31.264Z,8.38
2022-09-12T21:56:03.919Z,8.68
2022-09-12T21:58:31.521Z,11.23
2022-09-12T22:01:00.499Z,5.93
2022-09-12T22:03:28.932Z,9.32
2022-09-12T22:06:01.964Z,7.10
2022-09-12T22:10:59.850Z,7.53
2022-09-12T22:13:27.394Z,9.18
2022-09-12T22:15:54.831Z,6.47
2022-09-12T22:18:22.394Z,8.10
2022-09-12T22:20:49.810Z,6.75
2022-09-12T22:23:32.722Z,8.52
2022-09-12T22:26:02.448Z,8.18
2022-09-12T22:28:32.253Z,8.30
2022-09-12T22:30:59.958Z,6.60
2022-09-12T22:33:28.249Z,5.63
2022-09-12T22:35:55.741Z,5.97
2022-09-12T22:38:23.265Z,8.05
2022-09-12T22:40:50.912Z,6.55
2022-09-12T22:43:18.524Z,8.55
2022-09-12T22:45:45.922Z,5.38
2022-09-12T22:48:13.345Z,8.18
2022-09-12T22:50:41.782Z,7.93
2022-09-12T22:53:09.617Z,5.40
2022-09-12T22:55:37.257Z,6.75
2022-09-12T22:58:04.839Z,9.25
2022-09-12T23:00:32.303Z,7.57
2022-09-12T23:02:59.915Z,8.73
2022-09-12T23:05:27.797Z,10.25
2022-09-12T23:07:55.715Z,13.13
2022-09-12T23:10:23.219Z,9.77
2022-09-12T23:12:50.916Z,12.32
2022-09-12T23:15:21.190Z,11.20
2022-09-12T23:17:48.878Z,10.68
2022-09-12T23:20:16.278Z,12.40
2022-09-12T23:22:43.728Z,9.23
2022-09-12T23:25:11.421Z,9.57
2022-09-12T23:27:40.201Z,10.20
2022-09-12T23:30:09.403Z,9.35
2022-09-12T23:32:37.127Z,9.40
2022-09-12T23:35:04.852Z,12.93
2022-09-12T23:37:32.389Z,9.45
2022-09-12T23:39:59.861Z,10.23
2022-09-12T23:42:27.381Z,8.45
2022-09-12T23:44:55.124Z,9.40
2022-09-12T23:47:22.620Z,9.30
2022-09-12T23:49:49.991Z,10.98
2022-09-12T23:52:17.539Z,8.63
2022-09-12T23:54:45.251Z,8.20
2022-09-12T23:57:12.762Z,10.63
2022-09-12T23:59:40.195Z,12.35
